createdAt,value
2022-07-31T00:38:28.163Z,92.80
2022-07-31T00:40:55.343Z,93.00
2022-07-31T00:43:22.428Z,92.80
2022-07-31T00:45:56.377Z,92.80
2022-07-31T00:48:27.718Z,92.90
2022-07-31T00:50:55.827Z,92.90
2022-07-31T00:53:22.923Z,92.90
2022-07-31T00:55:52.964Z,92.90
2022-07-31T00:58:20.863Z,93.10
2022-07-31T01:00:48.194Z,93.20
2022-07-31T01:03:16.463Z,93.10
2022-07-31T01:05:43.483Z,92.80
2022-07-31T01:08:10.724Z,92.90
2022-07-31T01:10:59.344Z,92.90
2022-07-31T01:13:39.696Z,92.80
2022-07-31T01:16:09.244Z,92.80
2022-07-31T01:18:38.484Z,92.90
2022-07-31T01:21:08.794Z,93.10
2022-07-31T01:24:03.883Z,93.10
2022-07-31T01:26:37.684Z,93.20
2022-07-31T01:29:16.583Z,93.10
2022-07-31T01:31:52.744Z,93.00
2022-07-31T01:34:45.006Z,93.10
2022-07-31T01:37:20.849Z,93.30
2022-07-31T01:40:04.803Z,93.40
2022-07-31T01:42:34.925Z,93.40
2022-07-31T01:45:04.424Z,93.50
2022-07-31T01:47:33.384Z,93.60
2022-07-31T01:50:04.974Z,93.70
2022-07-31T01:52:33.744Z,93.80
2022-07-31T01:55:02.044Z,93.70
2022-07-31T01:57:30.449Z,93.80
2022-07-31T02:00:02.137Z,93.70
2022-07-31T02:02:31.027Z,93.90
2022-07-31T02:04:58.404Z,94.10
2022-07-31T02:07:27.264Z,94.20
2022-07-31T02:09:58.772Z,94.20
2022-07-31T02:12:33.885Z,94.10
2022-07-31T02:15:06.744Z,94.40
2022-07-31T02:17:35.145Z,94.20
2022-07-31T02:20:05.910Z,94.30
2022-07-31T02:22:34.764Z,94.00
2022-07-31T02:25:03.131Z,94.30
2022-07-31T02:27:55.424Z,94.40
2022-07-31T02:30:18.784Z,94.40
2022-07-31T02:32:48.626Z,94.40
2022-07-31T02:35:17.746Z,94.40
2022-07-31T02:37:46.397Z,94.30
2022-07-31T02:40:15.507Z,94.40
2022-07-31T02:42:43.401Z,94.40
2022-07-31T02:45:11.007Z,94.40
2022-07-31T02:47:39.044Z,94.40
2022-07-31T02:50:07.466Z,94.60
2022-07-31T02:52:35.141Z,94.70
2022-07-31T02:55:03.246Z,94.60
2022-07-31T02:57:30.347Z,94.60
2022-07-31T02:59:57.373Z,94.50
2022-07-31T03:02:24.546Z,94.60
2022-07-31T03:05:04.369Z,94.70
2022-07-31T03:07:31.635Z,94.90
2022-07-31T03:09:58.950Z,94.80
2022-07-31T03:12:26.348Z,94.90
2022-07-31T03:14:55.378Z,94.80
2022-07-31T03:17:22.669Z,94.90
2022-07-31T03:19:49.891Z,95.30
2022-07-31T03:22:17.012Z,95.00
2022-07-31T03:24:44.792Z,95.00
2022-07-31T03:27:11.784Z,95.10
2022-07-31T03:29:43.715Z,95.00
2022-07-31T03:32:11.083Z,95.20
2022-07-31T03:34:38.203Z,95.30
2022-07-31T03:37:05.143Z,95.30
2022-07-31T03:39:32.148Z,95.20
2022-07-31T03:41:59.509Z,95.20
2022-07-31T03:44:26.926Z,95.20
2022-07-31T03:46:54.523Z,95.40
2022-07-31T03:49:23.161Z,95.60
2022-07-31T03:51:50.335Z,95.70
2022-07-31T03:54:17.504Z,95.50
2022-07-31T03:56:48.507Z,95.50
2022-07-31T03:59:16.954Z,95.80
2022-07-31T04:01:56.900Z,95.80
2022-07-31T04:04:25.692Z,95.80
2022-07-31T04:06:53.105Z,95.70
2022-07-31T04:09:22.144Z,95.80
2022-07-31T04:11:49.288Z,96.00
2022-07-31T04:14:16.427Z,96.00
2022-07-31T04:16:43.443Z,96.10
2022-07-31T04:19:10.844Z,96.10
2022-07-31T04:21:38.001Z,96.10
2022-07-31T04:24:05.472Z,95.90
2022-07-31T04:26:32.579Z,95.90
2022-07-31T04:29:00.192Z,96.00
2022-07-31T04:31:27.281Z,96.20
2022-07-31T04:33:56.835Z,96.20
2022-07-31T04:36:30.430Z,96.20
2022-07-31T04:38:59.189Z,96.20
2022-07-31T04:41:26.765Z,96.60
2022-07-31T04:43:56.233Z,96.10
2022-07-31T04:46:23.528Z,96.20
2022-07-31T04:48:50.812Z,96.30
2022-07-31T04:51:22.531Z,96.30
2022-07-31T04:53:50.992Z,96.60
2022-07-31T04:56:34.321Z,96.40
2022-07-31T04:59:06.350Z,96.30
2022-07-31T05:01:34.525Z,96.50
2022-07-31T05:04:01.902Z,96.70
2022-07-31T05:06:36.571Z,96.80
2022-07-31T05:09:09.014Z,96.70
2022-07-31T05:11:37.996Z,96.80
2022-07-31T05:14:06.789Z,97.10
2022-07-31T05:16:35.684Z,96.90
2022-07-31T05:19:03.920Z,96.70
2022-07-31T05:21:31.023Z,96.90
2022-07-31T05:24:01.295Z,97.30
2022-07-31T05:26:30.038Z,97.20
2022-07-31T05:28:58.959Z,97.30
2022-07-31T05:31:27.001Z,97.30
2022-07-31T05:33:54.441Z,97.50
2022-07-31T05:36:22.134Z,97.40
2022-07-31T05:38:49.375Z,97.20
2022-07-31T05:41:16.655Z,97.30
2022-07-31T05:43:43.722Z,97.20
2022-07-31T05:46:14.139Z,97.30
2022-07-31T05:48:41.664Z,97.40
2022-07-31T05:51:10.603Z,97.20
2022-07-31T05:53:37.945Z,97.40
2022-07-31T05:56:05.924Z,97.30
2022-07-31T05:58:34.266Z,97.30
2022-07-31T06:01:02.545Z,97.20
2022-07-31T06:03:30.204Z,97.20
2022-07-31T06:05:57.322Z,97.40
2022-07-31T06:08:25.364Z,97.50
2022-07-31T06:10:52.382Z,97.70
2022-07-31T06:13:23.481Z,97.60
2022-07-31T06:15:50.580Z,97.70
2022-07-31T06:18:17.706Z,97.50
2022-07-31T06:20:44.939Z,97.20
2022-07-31T06:23:22.467Z,97.10
2022-07-31T06:25:50.274Z,97.10
2022-07-31T06:28:17.466Z,97.10
2022-07-31T06:30:44.591Z,97.10
2022-07-31T06:33:16.498Z,97.00
2022-07-31T06:35:51.971Z,96.90
2022-07-31T06:38:19.889Z,96.90
2022-07-31T06:40:46.969Z,96.90
2022-07-31T06:43:13.955Z,97.00
2022-07-31T06:45:51.397Z,97.00
2022-07-31T06:48:19.363Z,96.70
2022-07-31T06:50:47.215Z,96.50
2022-07-31T06:53:14.274Z,96.90
2022-07-31T06:55:44.591Z,96.60
2022-07-31T06:58:11.874Z,96.50
2022-07-31T07:00:38.934Z,96.50
2022-07-31T07:03:06.037Z,96.50
2022-07-31T07:05:33.097Z,96.00
2022-07-31T07:08:02.947Z,96.00
2022-07-31T07:10:29.934Z,96.00
2022-07-31T07:12:56.926Z,96.10
2022-07-31T07:15:23.956Z,96.10
2022-07-31T07:17:50.914Z,95.90
2022-07-31T07:20:17.938Z,95.10
2022-07-31T07:22:45.034Z,95.20
2022-07-31T07:25:12.816Z,94.90
2022-07-31T07:27:39.972Z,94.60
2022-07-31T07:30:07.634Z,94.60
2022-07-31T07:32:34.874Z,94.60
2022-07-31T07:35:04.174Z,93.80
2022-07-31T07:37:31.293Z,93.20
2022-07-31T07:40:07.734Z,93.00
2022-07-31T07:42:34.870Z,92.70
2022-07-31T07:45:06.681Z,92.80
2022-07-31T07:47:54.138Z,92.70
2022-07-31T07:50:26.889Z,92.80
2022-07-31T07:52:56.153Z,93.00
2022-07-31T07:55:23.606Z,93.00
2022-07-31T07:57:50.865Z,92.30
2022-07-31T08:00:18.067Z,92.00
2022-07-31T08:03:46.765Z,91.80
2022-07-31T08:05:33.410Z,91.60
2022-07-31T08:08:03.451Z,92.30
2022-07-31T08:10:30.654Z,90.70
2022-07-31T08:12:58.352Z,90.40
2022-07-31T08:15:26.051Z,90.20
2022-07-31T08:17:53.191Z,90.70
2022-07-31T08:20:20.531Z,89.80
2022-07-31T08:22:47.641Z,88.70
2022-07-31T08:25:15.247Z,88.30
2022-07-31T08:27:42.521Z,89.00
2022-07-31T08:30:10.133Z,90.50
2022-07-31T08:32:38.720Z,91.40
2022-07-31T08:50:16.304Z,84.80
2022-07-31T08:52:45.813Z,85.60
2022-07-31T08:55:54.962Z,86.50
2022-07-31T08:58:00.443Z,86.00
2022-07-31T09:00:28.950Z,84.40
2022-07-31T09:02:56.302Z,85.00
2022-07-31T09:05:25.202Z,86.70
2022-07-31T09:07:52.482Z,85.80
2022-07-31T09:10:28.142Z,84.90
2022-07-31T09:12:57.301Z,84.40
2022-07-31T09:15:30.222Z,85.80
2022-07-31T09:17:57.702Z,84.60
2022-07-31T09:20:27.622Z,84.10
2022-07-31T09:23:05.922Z,83.40
2022-07-31T09:25:33.182Z,84.50
2022-07-31T09:28:07.783Z,83.60
2022-07-31T09:30:34.982Z,84.20
2022-07-31T09:33:19.082Z,85.90
2022-07-31T09:35:52.821Z,85.00
2022-07-31T09:38:20.682Z,83.20
2022-07-31T09:40:57.255Z,82.90
2022-07-31T09:43:25.904Z,83.70
2022-07-31T09:46:01.903Z,85.70
2022-07-31T09:48:29.522Z,83.30
2022-07-31T09:51:02.123Z,82.10
2022-07-31T09:53:43.932Z,82.60
2022-07-31T09:56:12.772Z,81.00
2022-07-31T09:58:41.413Z,81.40
2022-07-31T10:01:13.135Z,81.70
2022-07-31T10:03:41.262Z,79.60
2022-07-31T10:06:16.363Z,79.70
2022-07-31T10:08:46.357Z,78.10
2022-07-31T10:11:19.982Z,82.50
2022-07-31T10:13:50.041Z,78.70
2022-07-31T10:16:17.421Z,78.20
2022-07-31T23:21:02.636Z,89.40
2022-07-31T23:23:35.324Z,90.00
2022-07-31T23:26:02.344Z,90.00
2022-07-31T23:28:29.444Z,89.90
2022-07-31T23:30:56.557Z,90.10
2022-07-31T23:33:23.626Z,90.10
2022-07-31T23:35:50.739Z,90.20
2022-07-31T23:38:17.823Z,90.30
2022-07-31T23:40:44.921Z,90.40
2022-07-31T23:43:11.971Z,90.40
2022-07-31T23:45:39.102Z,90.40
2022-07-31T23:48:07.988Z,90.70
2022-07-31T23:50:42.087Z,90.80
2022-07-31T23:53:09.358Z,91.10
2022-07-31T23:55:39.143Z,91.20
2022-07-31T23:58:10.192Z,91.30
